Time;durP1;ratioP1;P1;durP2;ratioP2;P2;SDS_P1;SDS_P2;PMS_P1;PMS_P2;Temp;Humidity;BMP_temperature;BMP_pressure;BME280_temperature;BME280_humidity;BME280_pressure;Samples;Min_cycle;Max_cycle;Signal;HPM_P1;HPM_P2
2022/06/13 00:01:01;;;;;;;8.77;2.42;;;;;;;22.41;39.24;100806.94;4177695;28;20462;-69
2022/06/13 00:03:04;;;;;;;7.47;2.75;;;;;;;22.41;39.03;100804.28;4173665;28;20056;-68
2022/06/13 00:05:10;;;;;;;8.98;2.92;;;;;;;22.34;39.31;100806.25;4177127;28;20044;-68
2022/06/13 00:07:13;;;;;;;6.53;1.88;;;;;;;22.25;39.71;100812.66;4170848;28;20045;-69
2022/06/13 00:09:16;;;;;;;7.97;1.92;;;;;;;22.16;39.67;100809.41;4182231;28;20501;-70
2022/06/13 00:11:22;;;;;;;6.43;2.22;;;;;;;22.20;39.67;100809.25;4177194;28;20071;-68
2022/06/13 00:13:25;;;;;;;4.53;1.92;;;;;;;22.12;39.85;100801.53;4175652;28;20128;-69
2022/06/13 00:15:30;;;;;;;8.50;2.13;;;;;;;22.06;40.07;100806.13;4158226;28;20049;-69
2022/06/13 00:17:33;;;;;;;8.80;2.42;;;;;;;22.12;40.00;100803.31;4177545;28;20045;-70
2022/06/13 00:19:36;;;;;;;6.28;1.98;;;;;;;22.09;39.99;100801.63;4176462;28;20428;-70
2022/06/13 00:21:39;;;;;;;7.70;2.38;;;;;;;22.16;39.68;100802.31;4179229;28;20029;-69
2022/06/13 00:23:42;;;;;;;10.02;2.03;;;;;;;22.05;40.17;100791.16;4179763;28;20125;-70
2022/06/13 00:25:45;;;;;;;5.55;1.90;;;;;;;22.03;40.17;100795.63;4169798;28;20037;-70
2022/06/13 00:27:48;;;;;;;5.65;2.10;;;;;;;22.02;40.12;100801.81;4179130;28;20423;-69
2022/06/13 00:29:51;;;;;;;8.55;2.30;;;;;;;22.00;40.16;100787.78;4176178;28;20037;-69
2022/06/13 00:31:56;;;;;;;6.63;2.05;;;;;;;21.95;40.41;100778.19;4178658;28;20037;-70
2022/06/13 00:33:59;;;;;;;;;;;;;;;21.72;40.77;100786.75;4188181;28;20037;-69
2022/06/13 00:36:01;;;;;;;6.50;2.25;;;;;;;21.77;40.85;100776.91;4179921;28;19920;-70
2022/06/13 00:38:04;;;;;;;5.72;1.92;;;;;;;21.81;40.71;100779.47;4182001;28;20069;-70
2022/06/13 00:40:08;;;;;;;5.68;2.03;;;;;;;21.81;40.78;100780.34;4179943;28;20525;-70
2022/06/13 00:42:18;;;;;;;10.82;2.38;;;;;;;21.86;40.28;100786.38;4180581;28;20397;-70
2022/06/13 00:44:23;;;;;;;6.68;1.80;;;;;;;21.81;40.52;100784.78;4176928;28;20048;-70
2022/06/13 00:46:28;;;;;;;4.10;2.03;;;;;;;21.69;40.79;100794.78;4181971;28;20134;-71
2022/06/13 00:48:33;;;;;;;8.68;2.63;;;;;;;21.53;41.19;100807.53;4178178;28;20063;-71
2022/06/13 00:50:41;;;;;;;5.57;1.70;;;;;;;21.33;41.89;100809.78;4175204;28;21111;-71
2022/06/13 00:52:48;;;;;;;5.95;2.08;;;;;;;21.14;42.44;100812.00;4179024;28;20037;-71
2022/06/13 00:54:53;;;;;;;9.77;2.60;;;;;;;21.07;42.64;100811.28;4174994;28;20033;-69
2022/06/13 00:56:55;;;;;;;5.72;2.47;;;;;;;21.16;42.59;100808.44;4181296;28;20071;-68
2022/06/13 00:59:02;;;;;;;6.50;2.20;;;;;;;21.12;42.71;100822.63;4181045;28;20045;-67
2022/06/13 01:01:05;;;;;;;5.38;2.03;;;;;;;21.10;42.78;100819.16;4182270;28;20045;-68
2022/06/13 01:03:08;;;;;;;9.70;3.00;;;;;;;21.24;41.98;100818.81;4184448;28;20033;-70
2022/06/13 01:05:16;;;;;;;5.88;2.10;;;;;;;21.14;42.18;100814.66;4181311;28;20387;-70
2022/06/13 01:07:20;;;;;;;8.85;2.50;;;;;;;21.06;42.28;100821.00;4179678;28;20452;-69
2022/06/13 01:11:16;;;;;;;;;;;;;;;20.78;42.61;100820.78;4178166;28;20460;-69
2022/06/13 01:11:48;;;;;;;9.65;2.42;;;;;;;20.84;42.89;100825.91;4183266;28;20307;-71
2022/06/13 01:14:17;;;;;;;9.20;2.53;;;;;;;21.01;41.97;100820.25;4162815;28;20068;-69
2022/06/13 01:16:34;;;;;;;9.27;2.60;;;;;;;21.08;41.94;100828.88;4180684;28;20061;-68
2022/06/13 01:19:15;;;;;;;6.38;2.00;;;;;;;20.87;42.54;100824.97;4191811;28;20033;-71
2022/06/13 01:21:27;;;;;;;7.28;2.22;;;;;;;20.82;42.44;100822.44;4121411;28;20061;-69
2022/06/13 01:23:54;;;;;;;9.02;2.42;;;;;;;20.77;42.49;100831.38;4153762;28;20144;-69
2022/06/13 01:26:13;;;;;;;9.98;2.70;;;;;;;20.75;42.44;100828.75;4173046;28;20037;-69
2022/06/13 01:28:43;;;;;;;7.28;2.65;;;;;;;20.73;42.69;100825.28;4179510;28;20124;-69
2022/06/13 01:31:02;;;;;;;6.50;2.42;;;;;;;20.70;42.47;100825.34;4179080;28;20048;-69
2022/06/13 01:33:14;;;;;;;10.02;2.70;;;;;;;20.75;42.44;100829.63;4181814;28;20025;-68
2022/06/13 01:35:28;;;;;;;7.72;2.35;;;;;;;20.70;42.45;100820.91;4181013;28;20033;-69
2022/06/13 01:37:45;;;;;;;9.27;2.38;;;;;;;20.65;42.80;100821.91;4180999;28;20052;-68
2022/06/13 01:40:04;;;;;;;13.48;3.33;;;;;;;20.63;42.61;100834.28;4162223;28;20044;-69
2022/06/13 01:42:14;;;;;;;5.65;1.90;;;;;;;20.51;42.73;100825.69;4178029;28;20079;-69
2022/06/13 01:44:33;;;;;;;13.55;3.08;;;;;;;20.53;42.98;100818.63;4177816;28;20040;-70
2022/06/13 01:46:42;;;;;;;8.02;2.58;;;;;;;20.43;43.31;100822.38;4173565;28;20041;-69
2022/06/13 01:48:53;;;;;;;8.30;2.53;;;;;;;20.42;43.48;100823.25;4179765;28;20922;-69
2022/06/13 01:51:05;;;;;;;5.50;2.10;;;;;;;20.47;43.26;100820.50;4175602;28;20428;-70
2022/06/13 01:53:16;;;;;;;12.85;2.67;;;;;;;20.43;43.72;100829.41;4177436;28;20124;-69
2022/06/13 01:55:25;;;;;;;8.95;2.50;;;;;;;20.24;43.65;100832.44;4178307;28;20469;-69
2022/06/13 01:57:32;;;;;;;6.72;2.15;;;;;;;20.22;44.33;100829.81;4178903;28;20049;-69
2022/06/13 01:59:53;;;;;;;7.28;2.40;;;;;;;20.11;44.72;100828.31;4179230;28;20489;-69
2022/06/13 02:02:06;;;;;;;7.05;2.15;;;;;;;20.04;44.60;100836.31;4180553;28;20041;-69
2022/06/13 02:04:15;;;;;;;8.27;2.33;;;;;;;20.10;44.86;100834.47;4175720;28;20071;-68
2022/06/13 02:06:23;;;;;;;9.25;2.22;;;;;;;20.09;44.37;100830.09;4175966;28;20607;-69
2022/06/13 02:08:32;;;;;;;9.95;3.10;;;;;;;20.14;44.61;100834.38;4179292;28;20040;-69
2022/06/13 02:10:40;;;;;;;8.13;2.33;;;;;;;20.01;45.00;100827.59;4178705;28;20092;-69
2022/06/13 02:12:47;;;;;;;9.38;2.85;;;;;;;20.12;45.02;100833.56;4183004;28;20398;-68
2022/06/13 02:14:57;;;;;;;9.20;2.65;;;;;;;19.98;45.32;100835.59;4169887;28;20041;-68
2022/06/13 02:17:11;;;;;;;10.98;2.45;;;;;;;19.90;45.54;100842.75;4184534;28;20068;-69
2022/06/13 02:19:21;;;;;;;13.23;3.17;;;;;;;19.95;45.08;100847.06;4178191;28;20128;-67
2022/06/13 02:21:31;;;;;;;7.25;2.80;;;;;;;19.91;45.44;100844.50;4179772;28;20136;-69
2022/06/13 02:23:45;;;;;;;6.80;2.22;;;;;;;19.79;45.89;100840.31;4172603;28;20040;-68
2022/06/13 02:25:53;;;;;;;7.10;2.50;;;;;;;19.74;46.18;100840.34;4178350;28;20510;-69
2022/06/13 02:28:00;;;;;;;8.90;2.55;;;;;;;19.82;45.82;100833.22;4179300;28;20037;-69
2022/06/13 02:30:06;;;;;;;8.93;3.20;;;;;;;19.80;45.92;100831.50;4177178;28;20450;-70
2022/06/13 02:32:15;;;;;;;7.78;2.60;;;;;;;19.70;46.44;100833.41;4174266;28;20128;-68
2022/06/13 02:34:25;;;;;;;5.72;2.10;;;;;;;19.60;46.38;100837.09;4175333;28;20041;-69
2022/06/13 02:36:36;;;;;;;7.55;2.50;;;;;;;19.60;46.51;100834.47;4178625;28;20128;-69
2022/06/13 02:38:44;;;;;;;9.55;2.80;;;;;;;19.57;47.17;100838.03;4179666;28;20076;-70
2022/06/13 02:40:51;;;;;;;7.55;2.33;;;;;;;19.74;46.64;100832.44;4175240;28;20513;-68
2022/06/13 02:43:00;;;;;;;11.90;2.78;;;;;;;19.66;46.51;100831.72;4179938;28;20033;-69
2022/06/13 02:45:08;;;;;;;13.60;3.03;;;;;;;19.59;47.06;100835.34;4176123;28;20041;-70
2022/06/13 02:47:18;;;;;;;9.07;3.10;;;;;;;19.73;46.43;100836.00;4175773;28;20128;-69
2022/06/13 02:49:26;;;;;;;8.65;2.35;;;;;;;19.64;46.66;100841.41;4180147;28;20453;-69
2022/06/13 02:51:39;;;;;;;7.43;2.67;;;;;;;19.53;47.14;100844.25;4176350;28;20049;-69
2022/06/13 02:53:48;;;;;;;7.03;2.17;;;;;;;19.43;47.12;100843.50;4161101;28;20045;-70
2022/06/13 02:56:03;;;;;;;6.32;2.65;;;;;;;19.46;47.35;100838.19;4184099;28;20040;-70
2022/06/13 02:58:08;;;;;;;;;;;;;;;19.26;47.97;100841.16;4178411;28;20039;-69
2022/06/13 03:00:20;;;;;;;10.85;2.90;;;;;;;19.46;47.26;100837.31;4177983;28;20441;-69
2022/06/13 03:02:31;;;;;;;9.20;2.47;;;;;;;19.48;47.47;100841.69;4186222;28;20202;-69
2022/06/13 03:04:38;;;;;;;9.43;3.20;;;;;;;19.41;47.48;100840.03;4186487;28;20086;-68
2022/06/13 03:06:50;;;;;;;5.70;1.95;;;;;;;19.32;47.69;100838.44;4183393;28;20036;-70
2022/06/13 03:09:01;;;;;;;10.68;2.53;;;;;;;19.42;47.46;100835.63;4172214;28;20127;-69
2022/06/13 03:11:08;;;;;;;9.32;2.88;;;;;;;19.33;47.52;100834.91;4178729;28;20136;-69
2022/06/13 03:13:21;;;;;;;9.75;2.40;;;;;;;19.27;48.16;100831.47;4178366;28;20037;-70
2022/06/13 03:15:31;;;;;;;12.60;3.60;;;;;;;19.44;47.89;100836.50;4181737;28;20059;-69
2022/06/13 03:17:44;;;;;;;10.73;3.58;;;;;;;19.36;48.21;100841.88;4178649;28;20033;-70
2022/06/13 03:19:51;;;;;;;8.88;2.78;;;;;;;19.25;48.13;100842.06;4173845;28;20138;-69
2022/06/13 03:22:00;;;;;;;8.35;2.88;;;;;;;19.27;48.42;100844.66;4173177;28;20037;-69
2022/06/13 03:24:12;;;;;;;10.27;3.63;;;;;;;19.41;47.62;100845.31;4180992;28;20039;-69
2022/06/13 03:26:19;;;;;;;10.68;3.28;;;;;;;19.26;47.68;100856.09;4178779;28;20120;-70
2022/06/13 03:28:26;;;;;;;7.78;3.00;;;;;;;19.27;48.60;100858.69;4179134;28;20041;-69
2022/06/13 03:30:32;;;;;;;8.07;2.53;;;;;;;19.22;48.24;100864.97;4180890;28;20520;-69
2022/06/13 03:32:41;;;;;;;11.70;3.72;;;;;;;19.28;48.33;100864.88;4175888;28;20044;-68
2022/06/13 03:34:49;;;;;;;7.50;3.50;;;;;;;19.18;48.55;100864.97;4170865;28;20041;-69
2022/06/13 03:36:58;;;;;;;8.13;2.30;;;;;;;19.10;48.54;100872.16;4177375;28;20064;-70
2022/06/13 03:39:10;;;;;;;9.20;3.25;;;;;;;19.14;48.56;100878.22;4178492;28;20041;-71
2022/06/13 03:41:17;;;;;;;9.15;2.63;;;;;;;19.09;48.94;100875.66;4181578;28;20502;-70
2022/06/13 03:43:26;;;;;;;7.60;3.00;;;;;;;18.97;48.84;100875.84;4182930;28;20071;-70
2022/06/13 03:45:34;;;;;;;8.50;3.30;;;;;;;18.99;48.65;100884.59;4182288;28;20389;-70
2022/06/13 03:47:43;;;;;;;8.90;2.75;;;;;;;19.11;48.20;100883.56;4182389;28;20072;-70
2022/06/13 03:49:52;;;;;;;8.45;3.08;;;;;;;19.05;48.49;100889.78;4174881;28;20040;-69
2022/06/13 03:51:58;;;;;;;7.63;2.55;;;;;;;19.07;48.35;100888.00;4178834;28;20485;-69
2022/06/13 03:54:11;;;;;;;12.13;3.72;;;;;;;19.04;48.71;100892.44;4177091;28;20498;-69
2022/06/13 03:56:24;;;;;;;7.60;2.35;;;;;;;19.01;48.88;100893.34;4177168;28;20064;-69
2022/06/13 03:58:33;;;;;;;7.38;2.67;;;;;;;19.00;48.89;100900.38;4179392;28;20379;-69
2022/06/13 04:00:42;;;;;;;9.13;2.63;;;;;;;18.94;48.93;100894.31;4176195;28;20124;-70
2022/06/13 04:02:46;;;;;;;9.57;2.97;;;;;;;19.13;48.26;100900.22;4172652;28;20047;-69
2022/06/13 04:04:53;;;;;;;13.02;3.53;;;;;;;19.08;48.76;100900.28;4166510;28;20409;-69
2022/06/13 04:06:56;;;;;;;6.78;2.67;;;;;;;18.93;48.47;100900.50;4172021;28;20044;-70
2022/06/13 04:09:00;;;;;;;6.32;2.30;;;;;;;18.88;49.08;100897.03;4173025;28;20047;-70
2022/06/13 04:11:20;;;;;;;9.45;2.67;;;;;;;18.89;48.41;100909.31;4169764;28;20052;-69
2022/06/13 04:13:46;;;;;;;7.57;2.55;;;;;;;18.84;49.00;100912.00;4168669;28;20045;-69
2022/06/13 04:16:09;;;;;;;7.20;2.60;;;;;;;18.82;49.08;100909.38;4188229;28;20139;-70
2022/06/13 04:18:22;;;;;;;7.32;2.80;;;;;;;19.16;47.64;100906.31;4170765;28;20048;-69
2022/06/13 04:20:30;;;;;;;6.95;3.10;;;;;;;19.12;48.74;100906.38;4173165;28;20120;-69
2022/06/13 04:22:43;;;;;;;10.65;2.80;;;;;;;19.15;49.41;100906.34;4178884;28;20501;-69
2022/06/13 04:24:55;;;;;;;7.68;2.53;;;;;;;19.18;48.46;100907.16;4166039;28;20133;-70
2022/06/13 04:27:06;;;;;;;6.43;2.40;;;;;;;19.14;48.65;100916.03;4169344;28;20087;-70
2022/06/13 04:29:17;;;;;;;7.93;2.58;;;;;;;19.05;48.46;100908.22;4175560;28;20084;-69
2022/06/13 04:31:23;;;;;;;6.20;2.13;;;;;;;19.10;48.60;100908.16;4183402;28;20120;-71
2022/06/13 04:33:33;;;;;;;8.27;2.78;;;;;;;19.28;52.23;100914.94;4172403;28;20520;-63
2022/06/13 04:35:37;;;;;;;12.82;2.70;;;;;;;19.70;50.12;100909.91;4178939;28;20040;-68
2022/06/13 04:37:42;;;;;;;6.50;2.30;;;;;;;19.86;47.48;100908.78;4174858;28;20073;-69
2022/06/13 04:39:46;;;;;;;;;;;;;;;19.59;47.52;100919.75;4178949;28;20067;-69
2022/06/13 04:41:52;;;;;;;6.73;2.37;;;;;;;19.49;47.84;100909.38;4173025;28;20007;-69
2022/06/13 04:43:59;;;;;;;6.40;2.55;;;;;;;19.44;47.46;100912.97;4174065;28;20311;-69
2022/06/13 04:46:08;;;;;;;9.02;2.40;;;;;;;19.45;47.27;100920.84;4174412;28;20065;-69
2022/06/13 04:48:12;;;;;;;7.22;2.63;;;;;;;19.45;46.98;100922.59;4179189;28;20426;-69
2022/06/13 04:50:20;;;;;;;7.20;2.50;;;;;;;19.33;47.39;100921.00;4178797;28;20140;-69
2022/06/13 04:52:28;;;;;;;7.43;2.50;;;;;;;19.33;47.44;100926.28;4168387;28;20060;-69
2022/06/13 04:54:36;;;;;;;4.68;2.15;;;;;;;19.26;47.17;100929.91;4181051;28;20059;-69
2022/06/13 04:56:39;;;;;;;12.38;2.60;;;;;;;19.23;47.32;100925.56;4165645;28;20544;-69
2022/06/13 04:58:44;;;;;;;6.20;2.58;;;;;;;19.28;46.98;100936.03;4166230;28;20045;-68
2022/06/13 05:00:49;;;;;;;5.63;2.08;;;;;;;19.24;47.14;100934.34;4166264;28;20522;-69
2022/06/13 05:02:56;;;;;;;6.72;2.60;;;;;;;19.25;47.13;100944.00;4166279;28;20124;-68
2022/06/13 05:04:59;;;;;;;8.18;3.05;;;;;;;19.17;47.25;100949.34;4164573;28;20041;-68
2022/06/13 05:07:10;;;;;;;5.45;2.08;;;;;;;19.24;47.49;100958.06;4167984;28;20045;-69
2022/06/13 05:09:17;;;;;;;8.00;2.38;;;;;;;19.24;47.29;100958.06;4181258;28;20049;-69
2022/06/13 05:11:25;;;;;;;9.23;2.97;;;;;;;19.38;47.22;100953.47;4168021;28;20094;-68
2022/06/13 05:13:28;;;;;;;8.48;2.95;;;;;;;19.34;47.16;100962.31;4164833;28;20046;-68
2022/06/13 05:15:34;;;;;;;7.32;2.65;;;;;;;19.32;47.42;100959.69;4165518;28;20507;-69
2022/06/13 05:17:58;;;;;;;8.90;2.50;;;;;;;19.21;47.40;100958.09;4164411;28;20096;-69
2022/06/13 05:20:07;;;;;;;6.03;2.10;;;;;;;19.18;47.79;100965.13;4165872;28;20056;-69
2022/06/13 05:22:29;;;;;;;7.50;2.88;;;;;;;19.35;47.28;100967.56;4176931;28;20235;-69
2022/06/13 05:24:53;;;;;;;6.15;2.78;;;;;;;19.33;46.96;100968.47;4165962;28;20128;-69
2022/06/13 05:26:56;;;;;;;7.82;2.70;;;;;;;19.41;46.84;100969.25;4166503;28;20104;-67
2022/06/13 05:29:00;;;;;;;9.15;2.90;;;;;;;19.32;47.19;100967.59;4181146;28;20075;-68
2022/06/13 05:31:08;;;;;;;6.78;2.42;;;;;;;19.34;47.00;100970.22;4171296;28;20059;-68
2022/06/13 05:33:13;;;;;;;6.32;2.72;;;;;;;19.41;47.28;100968.38;4165817;28;20066;-69
2022/06/13 05:35:20;;;;;;;5.65;2.28;;;;;;;19.43;46.82;100978.00;4165350;28;20048;-68
2022/06/13 05:37:25;;;;;;;6.57;2.45;;;;;;;19.54;47.41;100969.94;4164531;28;20045;-68
2022/06/13 05:39:28;;;;;;;7.82;2.97;;;;;;;19.66;46.75;100976.78;4164538;28;20096;-68
2022/06/13 05:41:31;;;;;;;9.00;3.00;;;;;;;19.83;46.03;100972.16;4164645;28;20045;-69
2022/06/13 05:43:34;;;;;;;7.13;2.30;;;;;;;19.73;46.67;100974.91;4174510;28;20048;-69
2022/06/13 05:45:39;;;;;;;9.80;3.05;;;;;;;19.75;45.98;100971.38;4179405;28;20087;-69
2022/06/13 05:47:42;;;;;;;;;;;;;;;19.65;46.13;100975.91;4181129;28;20145;-69
2022/06/13 05:49:46;;;;;;;6.32;2.17;;;;;;;19.68;46.13;100970.59;4181684;28;20441;-70
2022/06/13 05:51:48;;;;;;;5.75;2.10;;;;;;;19.68;46.52;100975.88;4181576;28;20120;-70
2022/06/13 05:53:53;;;;;;;8.27;2.67;;;;;;;19.84;46.02;100976.56;4172447;28;20092;-68
2022/06/13 05:56:00;;;;;;;12.00;3.22;;;;;;;20.07;45.15;100983.19;4165152;28;20298;-68
2022/06/13 05:58:03;;;;;;;6.63;2.67;;;;;;;19.89;45.71;100987.03;4164022;28;20525;-69
2022/06/13 06:00:10;;;;;;;7.22;2.38;;;;;;;19.98;45.21;100993.94;4176021;28;20459;-69
2022/06/13 06:02:13;;;;;;;7.03;2.70;;;;;;;20.12;44.47;100989.28;4177605;28;20075;-68
2022/06/13 06:04:17;;;;;;;7.47;3.55;;;;;;;19.95;45.25;100993.97;4180087;28;20136;-69
2022/06/13 06:06:22;;;;;;;7.78;2.45;;;;;;;19.97;45.54;100987.75;4180741;28;20509;-68
2022/06/13 06:08:29;;;;;;;9.05;3.50;;;;;;;20.09;45.06;101001.66;4180488;28;20136;-68
2022/06/13 06:10:37;;;;;;;7.20;2.38;;;;;;;20.19;44.87;101003.25;4181542;28;20064;-68
2022/06/13 06:12:39;;;;;;;13.05;3.30;;;;;;;20.22;44.61;101004.06;4181648;28;20490;-67
2022/06/13 06:14:43;;;;;;;9.95;3.22;;;;;;;20.33;44.70;100997.75;4157259;28;20045;-68
2022/06/13 06:16:45;;;;;;;15.45;3.65;;;;;;;20.52;43.88;101011.47;4164931;28;20072;-68
2022/06/13 06:18:49;;;;;;;10.68;4.00;;;;;;;20.52;44.08;100996.50;4165009;28;20041;-67
2022/06/13 06:20:52;;;;;;;12.23;3.50;;;;;;;20.63;43.32;101008.63;4164946;28;20144;-67
2022/06/13 06:22:55;;;;;;;12.80;3.58;;;;;;;20.58;43.60;101003.44;4164988;28;20528;-67
2022/06/13 06:24:58;;;;;;;11.57;3.43;;;;;;;20.45;44.21;101004.56;4163312;28;20045;-67
2022/06/13 06:27:04;;;;;;;10.18;3.00;;;;;;;20.50;43.74;101007.97;4163735;28;20427;-68
2022/06/13 06:29:06;;;;;;;13.05;3.60;;;;;;;20.44;43.55;101013.38;4175623;28;20041;-68
2022/06/13 06:31:11;;;;;;;9.55;3.42;;;;;;;20.34;44.10;101010.00;4176466;28;20059;-67
2022/06/13 06:33:14;;;;;;;10.10;3.28;;;;;;;20.44;44.01;101008.97;4181326;28;20045;-68
2022/06/13 06:35:17;;;;;;;9.38;3.40;;;;;;;20.42;44.50;101008.13;4179662;28;20037;-67
2022/06/13 06:37:20;;;;;;;11.07;3.77;;;;;;;20.43;44.31;101012.50;4179923;28;20045;-68
2022/06/13 06:39:23;;;;;;;10.48;3.80;;;;;;;20.48;43.69;101015.94;4167603;28;20041;-68
2022/06/13 06:41:26;;;;;;;8.00;2.85;;;;;;;20.44;43.20;101014.25;4166752;28;20047;-68
2022/06/13 06:43:31;;;;;;;9.23;2.70;;;;;;;20.40;42.92;101021.34;4174777;28;20048;-68
2022/06/13 06:45:34;;;;;;;11.23;3.22;;;;;;;20.55;41.84;101017.56;4178094;28;20075;-68
2022/06/13 06:47:39;;;;;;;11.38;3.90;;;;;;;20.64;41.29;101021.81;4180955;28;20040;-69
2022/06/13 06:49:41;;;;;;;9.27;3.58;;;;;;;20.63;41.16;101024.47;4181105;28;20033;-68
2022/06/13 06:51:45;;;;;;;9.13;3.13;;;;;;;20.56;41.54;101024.59;4181052;28;20049;-67
2022/06/13 07:00:54;;;;;;;8.70;3.13;;;;;;;20.81;41.26;101024.19;4164519;28;20049;-68
2022/06/13 07:02:58;;;;;;;15.68;3.15;;;;;;;20.66;42.32;101030.63;4164335;28;20116;-68
2022/06/13 07:05:04;;;;;;;14.63;3.22;;;;;;;20.70;42.08;101027.00;4178819;28;20146;-68
2022/06/13 07:07:07;;;;;;;11.52;3.40;;;;;;;20.95;41.77;101017.75;4172424;28;20038;-68
2022/06/13 07:09:10;;;;;;;8.75;2.75;;;;;;;20.79;41.85;101025.09;4174803;28;20103;-67
2022/06/13 07:13:40;;;;;;;;;;;;;;;20.51;42.61;101026.44;4178929;28;20063;-68
2022/06/13 07:15:43;;;;;;;12.05;3.13;;;;;;;20.56;43.34;101029.03;4170745;28;20012;-68
2022/06/13 07:17:46;;;;;;;9.55;2.80;;;;;;;20.72;42.78;101029.63;4163038;28;20069;-68
2022/06/13 07:19:49;;;;;;;12.65;4.43;;;;;;;20.87;41.47;101029.34;4164200;28;20136;-68
2022/06/13 07:21:52;;;;;;;14.85;4.18;;;;;;;20.74;41.79;101033.97;4163068;28;20044;-68
2022/06/13 07:23:56;;;;;;;9.57;3.03;;;;;;;20.70;41.69;101037.56;4163057;28;20481;-67
2022/06/13 07:25:58;;;;;;;9.23;3.17;;;;;;;20.61;41.75;101042.13;4163864;28;20124;-68
2022/06/13 07:28:01;;;;;;;7.10;2.03;;;;;;;20.54;42.39;101036.94;4167132;28;20128;-68
2022/06/13 07:30:07;;;;;;;8.75;2.42;;;;;;;20.68;42.04;101036.75;4177636;28;20537;-68
2022/06/13 07:32:13;;;;;;;6.43;2.75;;;;;;;20.71;41.79;101038.47;4163002;28;20129;-68
2022/06/13 07:34:18;;;;;;;8.13;2.83;;;;;;;20.68;42.33;101033.25;4163850;28;20053;-68
2022/06/13 07:36:22;;;;;;;7.18;2.63;;;;;;;20.75;41.94;101037.50;4173709;28;20076;-68
2022/06/13 07:38:25;;;;;;;5.50;2.20;;;;;;;20.80;41.45;101037.41;4173932;28;20148;-69
2022/06/13 07:40:29;;;;;;;7.65;2.70;;;;;;;20.90;41.23;101038.97;4178029;28;20041;-67
2022/06/13 07:42:37;;;;;;;7.72;2.40;;;;;;;20.92;41.52;101034.53;4166231;28;20128;-68
2022/06/13 07:44:41;;;;;;;5.25;2.33;;;;;;;20.81;42.10;101032.09;4183579;28;20049;-69
2022/06/13 07:46:47;;;;;;;9.20;2.40;;;;;;;21.02;41.97;101043.16;4183908;28;20075;-68
2022/06/13 07:48:50;;;;;;;8.82;2.75;;;;;;;21.11;41.55;101032.38;4183898;28;20041;-69
2022/06/13 07:50:53;;;;;;;8.70;2.63;;;;;;;21.35;40.38;101038.94;4183915;28;20044;-68
2022/06/13 07:52:57;;;;;;;6.95;2.45;;;;;;;21.12;41.33;101033.28;4180955;28;20051;-69
2022/06/13 07:55:00;;;;;;;14.02;4.38;;;;;;;21.17;41.50;101042.81;4176077;28;20098;-68
2022/06/13 07:57:04;;;;;;;6.95;2.53;;;;;;;21.31;40.09;101039.06;4184147;28;20080;-68
2022/06/13 07:59:14;;;;;;;9.18;2.83;;;;;;;21.31;40.32;101033.75;4183693;28;20405;-68
2022/06/13 08:01:19;;;;;;;6.72;2.25;;;;;;;21.32;40.30;101025.78;4182742;28;20047;-68
2022/06/13 08:03:24;;;;;;;;;;;;;;;21.43;39.77;101030.84;4170545;28;20072;-69
2022/06/13 08:05:27;;;;;;;;;;;;;;;21.43;40.11;101029.06;4167216;28;20445;-69
2022/06/13 08:07:30;;;;;;;9.98;3.03;;;;;;;21.44;40.41;101030.81;4167141;28;19928;-68
2022/06/13 08:09:33;;;;;;;9.15;2.80;;;;;;;21.56;40.08;101034.97;4180993;28;20045;-68
2022/06/13 08:11:40;;;;;;;6.28;2.00;;;;;;;21.41;40.16;101037.94;4168028;28;20044;-69
2022/06/13 08:13:43;;;;;;;9.85;2.90;;;;;;;21.57;39.11;101034.09;4167095;28;20129;-68
2022/06/13 08:15:46;;;;;;;6.13;2.15;;;;;;;21.47;39.51;101029.88;4176080;28;20041;-69
2022/06/13 08:17:49;;;;;;;14.55;2.78;;;;;;;21.51;38.90;101026.28;4174519;28;20498;-67
2022/06/13 08:19:54;;;;;;;9.13;2.15;;;;;;;21.54;38.09;101026.22;4182227;28;20040;-68
2022/06/13 08:21:56;;;;;;;7.43;1.90;;;;;;;21.56;38.20;101027.03;4183771;28;20044;-68
2022/06/13 08:23:59;;;;;;;7.03;2.10;;;;;;;21.72;38.16;101029.34;4181811;28;20048;-68
2022/06/13 08:26:13;;;;;;;5.10;2.38;;;;;;;21.64;38.09;101032.19;4171094;28;20049;-68
2022/06/13 08:28:16;;;;;;;6.50;1.83;;;;;;;21.66;38.78;101032.16;4168463;28;20056;-68
2022/06/13 08:30:19;;;;;;;6.75;2.08;;;;;;;21.86;37.85;101042.25;4178581;28;20040;-68
2022/06/13 08:32:22;;;;;;;8.60;2.47;;;;;;;21.97;37.40;101041.09;4183022;28;20048;-68
2022/06/13 08:34:25;;;;;;;7.15;2.20;;;;;;;22.02;36.98;101032.16;4182781;28;20140;-68
2022/06/13 08:36:29;;;;;;;5.05;1.92;;;;;;;21.95;36.33;101040.28;4181732;28;20497;-67
2022/06/13 08:38:32;;;;;;;7.88;2.67;;;;;;;22.10;35.22;101040.81;4181808;28;20049;-68
2022/06/13 08:40:42;;;;;;;6.13;2.10;;;;;;;22.14;34.75;101040.69;4183150;28;20047;-68
2022/06/13 08:42:52;;;;;;;3.33;1.38;;;;;;;22.18;34.48;101044.16;4181502;28;20048;-69
2022/06/13 08:45:01;;;;;;;6.70;2.28;;;;;;;22.14;34.14;101042.47;4186224;28;20119;-68
2022/06/13 08:47:11;;;;;;;5.43;2.03;;;;;;;22.26;33.38;101036.88;4178488;28;20048;-69
2022/06/13 08:49:26;;;;;;;3.75;1.70;;;;;;;22.25;32.34;101040.44;4198124;28;20480;-69
2022/06/13 08:51:35;;;;;;;;;;;;;;;22.21;33.17;101041.41;4180730;28;20131;-69
2022/06/13 08:53:48;;;;;;;6.45;2.03;;;;;;;22.20;34.05;101044.09;4173455;28;19925;-68
2022/06/13 08:55:56;;;;;;;4.13;1.27;;;;;;;22.41;34.11;101045.38;4163925;28;20418;-69
2022/06/13 08:58:11;;;;;;;3.40;1.50;;;;;;;22.33;33.82;101042.03;4166261;28;20486;-69
2022/06/13 09:00:17;;;;;;;;;;;;;;;22.09;33.53;101041.72;4180708;28;20154;-69
2022/06/13 09:02:27;;;;;;;4.10;1.25;;;;;;;22.17;34.32;101042.41;4160342;28;19921;-70
2022/06/13 09:04:34;;;;;;;4.65;1.65;;;;;;;22.28;33.19;101036.81;4175966;28;20052;-69
2022/06/13 09:06:44;;;;;;;6.60;1.85;;;;;;;22.69;32.34;101049.94;4180548;28;20037;-69
2022/06/13 09:08:55;;;;;;;4.45;1.77;;;;;;;22.70;32.29;101038.44;4182595;28;20136;-70
2022/06/13 09:11:03;;;;;;;4.97;1.70;;;;;;;22.60;32.98;101041.31;4182773;28;20045;-69
2022/06/13 09:13:13;;;;;;;7.57;1.92;;;;;;;22.79;32.74;101051.44;4181400;28;20040;-68
2022/06/13 09:15:19;;;;;;;9.30;2.28;;;;;;;22.78;33.45;101054.97;4182076;28;20049;-68
2022/06/13 09:17:29;;;;;;;5.63;1.98;;;;;;;22.89;32.61;101052.91;4180155;28;20037;-69
2022/06/13 09:19:38;;;;;;;3.95;1.70;;;;;;;22.69;33.94;101050.81;4174154;28;20048;-70
2022/06/13 09:21:50;;;;;;;9.18;2.30;;;;;;;22.86;32.46;101060.09;4182542;28;20045;-68
2022/06/13 09:24:03;;;;;;;6.90;1.77;;;;;;;22.58;33.63;101059.03;4182367;28;20033;-68
2022/06/13 09:26:13;;;;;;;5.28;1.70;;;;;;;22.30;33.49;101059.72;4181073;28;20259;-66
2022/06/13 09:28:22;;;;;;;7.72;2.25;;;;;;;22.26;33.89;101060.69;4182278;28;20140;-66
2022/06/13 09:30:29;;;;;;;3.47;1.33;;;;;;;22.33;34.12;101060.56;4182188;28;20069;-67
2022/06/13 09:32:35;;;;;;;6.35;1.75;;;;;;;22.54;34.11;101067.97;4179827;28;20041;-67
2022/06/13 09:34:43;;;;;;;6.38;1.80;;;;;;;22.81;34.01;101063.75;4173146;28;20529;-68
2022/06/13 09:36:57;;;;;;;5.40;1.58;;;;;;;22.98;33.86;101062.41;4165652;28;20156;-68
2022/06/13 09:39:04;;;;;;;5.22;1.98;;;;;;;23.09;33.90;101070.94;4165601;28;20045;-68
2022/06/13 09:41:23;;;;;;;7.63;2.85;;;;;;;23.13;32.33;101067.31;4165734;28;20065;-67
2022/06/13 09:43:38;;;;;;;5.95;1.83;;;;;;;23.12;31.71;101064.72;4165565;28;20052;-69
2022/06/13 09:45:53;;;;;;;8.40;2.55;;;;;;;23.14;31.67;101062.88;4168215;28;20502;-67
2022/06/13 09:48:03;;;;;;;;;;;;;;;23.09;33.14;101070.06;4174649;28;20429;-68
2022/06/13 09:50:16;;;;;;;6.57;1.83;;;;;;;22.96;33.26;101069.53;4177770;28;20340;-69
2022/06/13 09:52:31;;;;;;;6.82;2.35;;;;;;;22.98;32.65;101065.03;4165527;28;20037;-68
2022/06/13 09:54:43;;;;;;;7.22;2.40;;;;;;;22.83;32.37;101063.69;4163939;28;20580;-67
2022/06/13 09:57:00;;;;;;;3.92;1.67;;;;;;;22.71;33.29;101064.03;4165423;28;20071;-68
2022/06/13 09:59:17;;;;;;;5.45;1.90;;;;;;;22.83;33.81;101064.56;4164368;28;20037;-68
2022/06/13 10:01:27;;;;;;;9.77;2.03;;;;;;;22.87;33.51;101060.06;4164140;28;20125;-68
2022/06/13 10:03:41;;;;;;;6.82;2.45;;;;;;;22.81;32.65;101065.53;4176774;28;20041;-69
2022/06/13 10:05:49;;;;;;;6.53;1.75;;;;;;;22.79;32.72;101070.88;4179463;28;20079;-69